createdAt,value
2019-03-03T00:00:15.702Z,100037.31
2019-03-03T00:01:51.205Z,100033.92
2019-03-03T00:03:25.581Z,100034.97
2019-03-03T00:05:00.310Z,100029.54
2019-03-03T00:06:34.854Z,100033.39
2019-03-03T00:08:09.266Z,100029.91
2019-03-03T00:09:43.961Z,100033.52
2019-03-03T00:11:18.578Z,100033.53
2019-03-03T00:12:53.121Z,100030.89
2019-03-03T00:14:27.537Z,100034.27
2019-03-03T00:16:02.069Z,100029.92
2019-03-03T00:17:36.522Z,100030.78
2019-03-03T00:19:11.191Z,100024.86
2019-03-03T00:20:45.569Z,100034.34
2019-03-03T00:22:20.205Z,100026.80
2019-03-03T00:23:54.912Z,100028.73
2019-03-03T00:25:29.382Z,100018.23
2019-03-03T00:27:03.781Z,100020.52
2019-03-03T00:28:38.173Z,100020.31
2019-03-03T00:30:12.822Z,100019.55
2019-03-03T00:31:47.238Z,100016.33
2019-03-03T00:33:21.844Z,100013.74
2019-03-03T00:34:56.626Z,100010.09
2019-03-03T00:36:50.338Z,100006.19
2019-03-03T00:38:43.844Z,99999.55
2019-03-03T00:40:36.630Z,99991.23
2019-03-03T00:42:36.225Z,99988.59
2019-03-03T00:44:41.902Z,99984.94
2019-03-03T00:46:34.014Z,99988.00
2019-03-03T00:48:18.731Z,99992.41
2019-03-03T00:50:21.034Z,99991.03
2019-03-03T00:52:04.242Z,99995.44
2019-03-03T00:54:01.393Z,99998.00
2019-03-03T00:55:50.061Z,100000.58
2019-03-03T00:57:33.662Z,99995.84
2019-03-03T00:59:14.710Z,99996.81
2019-03-03T01:01:00.106Z,99995.09
2019-03-03T01:02:42.358Z,99990.48
2019-03-03T01:04:22.038Z,99990.48
2019-03-03T01:06:02.708Z,99989.74
2019-03-03T01:07:46.404Z,99984.36
2019-03-03T01:09:35.290Z,99985.11
2019-03-03T01:11:16.687Z,99983.81
2019-03-03T01:12:58.990Z,99976.16
2019-03-03T01:14:51.862Z,99976.48
2019-03-03T01:16:44.282Z,99980.23
2019-03-03T01:18:37.738Z,99971.88
2019-03-03T01:20:30.365Z,99973.13
2019-03-03T01:22:28.278Z,99968.16
2019-03-03T01:24:12.133Z,99967.82
2019-03-03T01:25:47.200Z,99966.02
2019-03-03T01:27:22.301Z,99967.66
2019-03-03T01:28:57.165Z,99968.05
2019-03-03T01:30:31.901Z,99966.16
2019-03-03T01:32:06.541Z,99953.20
2019-03-03T01:33:42.017Z,99946.22
2019-03-03T01:35:16.670Z,99950.23
2019-03-03T01:36:52.015Z,99942.69
2019-03-03T01:38:27.060Z,99946.62
2019-03-03T01:40:01.815Z,99945.35
2019-03-03T01:41:36.864Z,99941.53
2019-03-03T01:43:11.547Z,99947.81
2019-03-03T01:44:46.753Z,99948.64
2019-03-03T01:46:21.151Z,99947.66
2019-03-03T01:47:55.617Z,99945.56
2019-03-03T01:49:30.346Z,99947.50
2019-03-03T01:51:04.893Z,99939.21
2019-03-03T01:52:39.533Z,99934.59
2019-03-03T01:54:13.935Z,99935.20
2019-03-03T01:55:48.585Z,99934.61
2019-03-03T01:57:22.961Z,99937.34
2019-03-03T01:58:57.883Z,99935.11
2019-03-03T02:00:32.841Z,99936.64
2019-03-03T02:02:07.490Z,99936.43
2019-03-03T02:03:42.169Z,99936.88
2019-03-03T02:05:16.625Z,99937.83
2019-03-03T02:06:51.418Z,99930.13
2019-03-03T02:08:25.824Z,99938.91
2019-03-03T02:10:00.426Z,99937.52
2019-03-03T02:11:34.999Z,99937.75
2019-03-03T02:13:09.409Z,99932.92
2019-03-03T02:14:43.814Z,99924.94
2019-03-03T02:16:18.382Z,99927.38
2019-03-03T02:17:53.338Z,99924.41
2019-03-03T02:19:27.712Z,99928.18
2019-03-03T02:21:02.202Z,99923.49
2019-03-03T02:22:36.614Z,99925.96
2019-03-03T02:24:11.326Z,99917.14
2019-03-03T02:25:45.955Z,99915.48
2019-03-03T02:27:20.359Z,99923.67
2019-03-03T02:28:55.018Z,99914.37
2019-03-03T02:30:29.402Z,99919.26
2019-03-03T02:32:05.346Z,99916.17
2019-03-03T02:33:39.806Z,99915.48
2019-03-03T02:35:14.370Z,99914.95
2019-03-03T02:36:48.991Z,99914.55
2019-03-03T02:38:23.386Z,99912.38
2019-03-03T02:39:57.787Z,99911.05
2019-03-03T02:41:32.463Z,99914.39
2019-03-03T02:43:07.181Z,99906.45
2019-03-03T02:44:41.574Z,99899.70
2019-03-03T02:46:16.188Z,99903.77
2019-03-03T02:47:50.575Z,99906.47
2019-03-03T02:49:25.432Z,99905.40
2019-03-03T02:51:00.169Z,99901.82
2019-03-03T02:52:34.819Z,99900.38
2019-03-03T02:54:09.284Z,99893.88
2019-03-03T02:55:43.919Z,99897.91
2019-03-03T02:57:18.328Z,99891.69
2019-03-03T02:58:52.773Z,99893.80
2019-03-03T03:00:27.308Z,99893.26
2019-03-03T03:02:04.249Z,99889.16
2019-03-03T03:03:38.915Z,99890.70
2019-03-03T03:05:15.331Z,99885.59
2019-03-03T03:07:01.425Z,99886.24
2019-03-03T03:08:54.902Z,99884.77
2019-03-03T03:10:50.655Z,99884.15
2019-03-03T03:12:52.171Z,99883.56
2019-03-03T03:14:37.705Z,99889.95
2019-03-03T03:16:17.521Z,99890.42
2019-03-03T03:18:06.632Z,99883.05
2019-03-03T03:19:52.631Z,99886.00
2019-03-03T03:21:43.807Z,99885.88
2019-03-03T03:23:37.506Z,99892.14
2019-03-03T03:25:30.959Z,99881.76
2019-03-03T03:27:20.996Z,99879.73
2019-03-03T03:29:27.173Z,99885.44
2019-03-03T03:31:10.479Z,99886.30
2019-03-03T03:32:49.958Z,99887.30
2019-03-03T03:34:46.696Z,99889.18
2019-03-03T03:36:30.783Z,99894.42
2019-03-03T03:38:33.170Z,99895.28
2019-03-03T03:40:28.507Z,99896.09
2019-03-03T03:42:17.980Z,99893.80
2019-03-03T03:44:05.224Z,99898.33
2019-03-03T03:45:57.645Z,99894.64
2019-03-03T03:47:52.352Z,99892.00
2019-03-03T03:49:34.466Z,99895.36
2019-03-03T03:51:15.384Z,99893.02
2019-03-03T03:53:09.215Z,99894.13
2019-03-03T03:55:21.467Z,99896.73
2019-03-03T03:57:04.574Z,99893.55
2019-03-03T03:58:47.767Z,99888.89
2019-03-03T04:00:40.615Z,99885.17
2019-03-03T04:02:24.868Z,99891.80
2019-03-03T04:04:08.919Z,99887.24
2019-03-03T04:05:53.282Z,99882.81
2019-03-03T04:07:50.059Z,99875.49
2019-03-03T04:09:34.807Z,99878.09
2019-03-03T04:11:27.494Z,99881.63
2019-03-03T04:13:20.007Z,99887.43
2019-03-03T04:15:19.883Z,99875.34
2019-03-03T04:17:08.525Z,99876.56
2019-03-03T04:18:54.782Z,99876.27
2019-03-03T04:21:00.842Z,99873.07
2019-03-03T04:22:44.843Z,99874.56
2019-03-03T04:24:40.180Z,99865.97
2019-03-03T04:26:33.123Z,99862.63
2019-03-03T04:28:22.697Z,99866.48
2019-03-03T04:30:17.838Z,99874.16
2019-03-03T04:32:04.361Z,99870.16
2019-03-03T04:33:53.071Z,99862.20
2019-03-03T04:35:49.659Z,99858.02
2019-03-03T04:37:30.119Z,99861.59
2019-03-03T04:39:18.240Z,99852.77
2019-03-03T04:41:15.751Z,99855.27
2019-03-03T04:42:58.296Z,99853.66
2019-03-03T04:44:50.549Z,99850.34
2019-03-03T04:46:59.413Z,99853.67
2019-03-03T04:48:52.990Z,99867.64
2019-03-03T04:51:01.893Z,99855.46
2019-03-03T04:52:41.313Z,99854.43
2019-03-03T04:54:35.076Z,99857.50
2019-03-03T04:56:28.813Z,99850.30
2019-03-03T04:58:18.942Z,99844.23
2019-03-03T05:00:28.054Z,99843.06
2019-03-03T05:02:27.202Z,99853.55
2019-03-03T05:04:20.938Z,99843.22
2019-03-03T05:06:01.486Z,99846.61
2019-03-03T05:07:42.370Z,99842.12
2019-03-03T05:09:39.761Z,99843.70
2019-03-03T05:12:03.442Z,99847.83
2019-03-03T05:13:54.237Z,99842.84
2019-03-03T05:15:59.770Z,99838.37
2019-03-03T05:17:46.059Z,99833.75
2019-03-03T05:19:30.836Z,99831.93
2019-03-03T05:21:05.326Z,99833.55
2019-03-03T05:22:40.196Z,99832.79
2019-03-03T05:24:14.576Z,99832.73
2019-03-03T05:25:49.018Z,99832.98
2019-03-03T05:27:23.429Z,99840.81
2019-03-03T05:28:57.883Z,99833.94
2019-03-03T05:30:32.263Z,99835.02
2019-03-03T05:32:06.962Z,99832.20
2019-03-03T05:33:41.595Z,99837.52
2019-03-03T05:35:15.963Z,99842.27
2019-03-03T05:36:50.599Z,99832.90
2019-03-03T05:38:25.045Z,99838.36
2019-03-03T05:39:59.939Z,99836.42
2019-03-03T05:41:35.184Z,99840.44
2019-03-03T05:43:09.555Z,99833.91
2019-03-03T05:44:43.959Z,99831.64
2019-03-03T05:46:18.357Z,99827.59
2019-03-03T05:47:52.783Z,99833.63
2019-03-03T05:49:27.438Z,99825.47
2019-03-03T05:51:02.278Z,99827.97
2019-03-03T05:52:36.674Z,99823.58
2019-03-03T05:54:11.339Z,99821.77
2019-03-03T05:55:45.743Z,99828.10
2019-03-03T05:57:20.151Z,99813.94
2019-03-03T05:58:54.789Z,99810.22
2019-03-03T06:00:29.474Z,99808.88
2019-03-03T06:02:04.122Z,99807.45
2019-03-03T06:03:38.775Z,99805.48
2019-03-03T06:05:13.742Z,99797.08
2019-03-03T06:06:48.175Z,99795.45
2019-03-03T06:08:22.817Z,99795.27
2019-03-03T06:09:57.230Z,99796.28
2019-03-03T06:11:31.602Z,99800.58
2019-03-03T06:13:06.034Z,99792.90
2019-03-03T06:14:40.699Z,99788.70
2019-03-03T06:16:15.610Z,99794.45
2019-03-03T06:17:50.006Z,99790.11
2019-03-03T06:19:24.412Z,99794.73
2019-03-03T06:20:58.929Z,99793.30
2019-03-03T06:22:33.617Z,99783.49
2019-03-03T06:24:08.438Z,99785.19
2019-03-03T06:25:42.884Z,99785.39
2019-03-03T06:27:17.530Z,99786.19
2019-03-03T06:28:52.035Z,99785.33
2019-03-03T06:30:26.426Z,99788.34
2019-03-03T06:32:00.855Z,99797.83
2019-03-03T06:33:35.491Z,99803.28
2019-03-03T06:35:10.157Z,99794.98
2019-03-03T06:36:44.618Z,99801.75
2019-03-03T06:38:18.998Z,99796.64
2019-03-03T06:39:53.454Z,99802.55
2019-03-03T06:41:28.123Z,99805.08
2019-03-03T06:43:02.554Z,99801.96
2019-03-03T06:44:36.974Z,99805.18
2019-03-03T06:46:11.770Z,99806.95
2019-03-03T06:47:46.205Z,99810.59
2019-03-03T06:49:20.619Z,99809.29
2019-03-03T06:50:55.332Z,99811.20
2019-03-03T06:52:30.143Z,99808.31
2019-03-03T06:54:04.842Z,99807.77
2019-03-03T06:55:39.222Z,99803.94
2019-03-03T06:57:13.975Z,99808.42
2019-03-03T06:58:48.362Z,99808.91
2019-03-03T07:00:23.619Z,99803.80
2019-03-03T07:01:58.107Z,99795.53
2019-03-03T07:03:32.545Z,99802.45
2019-03-03T07:05:08.266Z,99797.20
2019-03-03T07:06:43.035Z,99794.95
2019-03-03T07:08:17.401Z,99801.89
2019-03-03T07:09:51.914Z,99800.93
2019-03-03T07:11:26.551Z,99794.66
2019-03-03T07:13:00.946Z,99802.39
2019-03-03T07:14:35.335Z,99813.38
2019-03-03T07:16:09.766Z,99806.80
2019-03-03T07:17:44.218Z,99804.78
2019-03-03T07:19:18.863Z,99810.08
2019-03-03T07:20:53.526Z,99802.89
2019-03-03T07:22:27.907Z,99802.13
2019-03-03T07:24:02.278Z,99810.51
2019-03-03T07:25:36.670Z,99796.86
2019-03-03T07:27:11.375Z,99804.53
2019-03-03T07:28:46.027Z,99807.16
2019-03-03T07:30:20.722Z,99804.44
2019-03-03T07:31:55.418Z,99801.35
2019-03-03T07:33:31.843Z,99806.59
2019-03-03T07:35:06.659Z,99808.81
2019-03-03T07:36:41.014Z,99816.72
2019-03-03T07:38:15.455Z,99810.01
2019-03-03T07:39:50.090Z,99814.45
2019-03-03T07:41:25.124Z,99801.41
2019-03-03T07:43:00.176Z,99805.98
2019-03-03T07:44:35.265Z,99810.29
2019-03-03T07:46:10.315Z,99808.59
2019-03-03T07:47:45.340Z,99804.55
2019-03-03T07:49:20.043Z,99806.14
2019-03-03T07:50:54.421Z,99818.84
2019-03-03T07:52:28.839Z,99817.61
2019-03-03T07:54:03.471Z,99817.30
2019-03-03T07:55:37.993Z,99821.08
2019-03-03T07:57:12.534Z,99818.07
2019-03-03T07:58:47.026Z,99816.80
2019-03-03T08:00:21.402Z,99820.24
2019-03-03T08:01:56.014Z,99803.86
2019-03-03T08:03:30.370Z,99808.30
2019-03-03T08:05:06.577Z,99819.55
2019-03-03T08:06:41.028Z,99806.98
2019-03-03T08:08:15.800Z,99809.25
2019-03-03T08:09:50.570Z,99811.11
2019-03-03T08:11:24.944Z,99802.41
2019-03-03T08:13:08.710Z,99803.87
2019-03-03T08:14:35.453Z,99802.65
2019-03-03T08:16:10.939Z,99800.30
2019-03-03T08:17:46.083Z,99799.88
2019-03-03T08:19:20.780Z,99801.05
2019-03-03T08:20:58.266Z,99794.92
2019-03-03T08:22:32.895Z,99797.31
2019-03-03T08:24:07.992Z,99795.09
2019-03-03T08:25:43.302Z,99788.45
2019-03-03T08:27:18.359Z,99795.47
2019-03-03T08:28:53.141Z,99791.03
2019-03-03T08:30:27.953Z,99780.34
2019-03-03T08:32:02.743Z,99791.19
2019-03-03T08:33:37.553Z,99784.77
2019-03-03T08:35:14.001Z,99781.30
2019-03-03T08:36:49.253Z,99786.98
2019-03-03T08:38:24.284Z,99786.17
2019-03-03T08:39:59.363Z,99792.83
2019-03-03T08:41:36.006Z,99790.50
2019-03-03T08:43:16.663Z,99788.69
2019-03-03T08:45:00.257Z,99786.24
2019-03-03T08:46:43.270Z,99784.96
2019-03-03T08:48:23.607Z,99790.37
2019-03-03T08:50:18.206Z,99790.27
2019-03-03T08:52:11.065Z,99786.77
2019-03-03T08:54:09.257Z,99778.08
2019-03-03T08:56:01.882Z,99788.37
2019-03-03T08:57:58.800Z,99773.33
2019-03-03T08:59:51.222Z,99788.47
2019-03-03T09:01:45.028Z,99775.08
2019-03-03T09:03:44.412Z,99784.79
2019-03-03T09:05:28.890Z,99777.73
2019-03-03T09:07:21.452Z,99774.39
2019-03-03T09:09:14.039Z,99767.71
2019-03-03T09:11:01.734Z,99780.92
2019-03-03T09:12:58.638Z,99787.72
2019-03-03T09:14:45.399Z,99781.19
2019-03-03T09:16:51.693Z,99778.55
2019-03-03T09:18:51.866Z,99783.06
2019-03-03T09:20:45.685Z,99780.06
2019-03-03T09:22:42.658Z,99789.48
2019-03-03T09:24:42.495Z,99770.68
2019-03-03T09:26:35.110Z,99788.98
2019-03-03T09:28:27.902Z,99771.46
2019-03-03T09:30:23.559Z,99774.13
2019-03-03T09:32:11.331Z,99780.93
2019-03-03T09:34:09.104Z,99783.80
2019-03-03T09:36:08.749Z,99782.30
2019-03-03T09:38:02.816Z,99775.05
2019-03-03T09:40:09.409Z,99780.05
2019-03-03T09:41:49.953Z,99783.87
2019-03-03T09:43:42.941Z,99776.61
2019-03-03T09:45:38.162Z,99785.09
2019-03-03T09:47:33.009Z,99779.06
2019-03-03T09:49:35.903Z,99787.12
2019-03-03T09:51:42.009Z,99785.39
2019-03-03T09:53:22.844Z,99796.86
2019-03-03T09:55:29.215Z,99773.53
2019-03-03T09:57:22.303Z,99795.03
2019-03-03T09:59:06.465Z,99787.28
2019-03-03T10:01:00.687Z,99803.03
2019-03-03T10:03:04.194Z,99795.65
2019-03-03T10:04:44.804Z,99791.41
2019-03-03T10:06:51.039Z,99783.58
2019-03-03T10:08:48.828Z,99780.02
2019-03-03T10:10:32.686Z,99787.19
2019-03-03T10:12:15.544Z,99781.69
2019-03-03T10:14:09.641Z,99785.25
2019-03-03T10:15:49.316Z,99776.12
2019-03-03T10:17:46.234Z,99781.36
2019-03-03T10:19:35.812Z,99775.48
2019-03-03T10:21:20.093Z,99774.55
2019-03-03T10:23:20.283Z,99776.56
2019-03-03T10:25:04.893Z,99781.47
2019-03-03T10:26:57.705Z,99773.92
2019-03-03T10:28:46.908Z,99780.31
2019-03-03T10:30:37.384Z,99782.11
2019-03-03T10:32:34.588Z,99779.63
2019-03-03T10:34:32.914Z,99776.57
2019-03-03T10:36:29.706Z,99774.36
2019-03-03T10:38:24.010Z,99776.64
2019-03-03T10:40:13.034Z,99764.69
2019-03-03T10:42:05.749Z,99765.40
2019-03-03T10:43:57.279Z,99762.71
2019-03-03T10:45:49.486Z,99764.95
2019-03-03T10:47:39.065Z,99757.41
2019-03-03T10:49:24.884Z,99748.58
2019-03-03T10:51:28.136Z,99747.70
2019-03-03T10:53:17.723Z,99748.95
2019-03-03T10:55:10.651Z,99746.35
2019-03-03T10:56:58.838Z,99738.83
2019-03-03T10:58:56.217Z,99738.05
2019-03-03T11:00:39.867Z,99737.59
2019-03-03T11:02:30.969Z,99731.83
2019-03-03T11:04:27.176Z,99738.08
2019-03-03T11:06:20.539Z,99739.00
2019-03-03T11:08:13.339Z,99735.72
2019-03-03T11:10:09.795Z,99737.95
2019-03-03T11:12:15.554Z,99721.64
2019-03-03T11:14:26.174Z,99724.23
2019-03-03T11:16:22.624Z,99727.16
2019-03-03T11:18:09.354Z,99733.13
2019-03-03T11:19:55.036Z,99734.45
2019-03-03T11:21:48.564Z,99730.76
2019-03-03T11:23:41.138Z,99729.50
2019-03-03T11:25:40.644Z,99729.41
2019-03-03T11:27:24.720Z,99725.63
2019-03-03T11:29:08.394Z,99719.81
2019-03-03T11:30:50.474Z,99718.69
2019-03-03T11:32:40.042Z,99719.97
2019-03-03T11:34:36.608Z,99716.65
2019-03-03T11:36:30.483Z,99725.55
2019-03-03T11:38:18.540Z,99717.54
2019-03-03T11:40:22.181Z,99718.50
2019-03-03T11:42:01.726Z,99723.94
2019-03-03T11:43:53.513Z,99715.32
2019-03-03T11:45:41.401Z,99713.94
2019-03-03T11:47:23.151Z,99710.25
2019-03-03T11:49:09.906Z,99713.01
2019-03-03T11:51:07.184Z,99722.58
2019-03-03T11:52:47.945Z,99716.22
2019-03-03T11:54:27.397Z,99709.14
2019-03-03T11:56:16.366Z,99705.77
2019-03-03T11:58:09.166Z,99711.20
2019-03-03T11:59:55.034Z,99705.19
2019-03-03T12:01:52.391Z,99706.22
2019-03-03T12:03:36.873Z,99696.94
2019-03-03T12:05:34.074Z,99687.61
2019-03-03T12:07:32.189Z,99691.50
2019-03-03T12:09:31.590Z,99685.64
2019-03-03T12:11:37.950Z,99681.67
2019-03-03T12:13:27.597Z,99675.41
2019-03-03T12:15:10.410Z,99666.83
2019-03-03T12:16:50.564Z,99668.23
2019-03-03T12:18:36.267Z,99656.73
2019-03-03T12:20:23.938Z,99663.17
2019-03-03T12:22:23.853Z,99653.53
2019-03-03T12:24:07.884Z,99650.06
2019-03-03T12:25:59.998Z,99631.20
2019-03-03T12:27:56.746Z,99635.00
2019-03-03T12:29:41.151Z,99620.41
2019-03-03T12:31:34.738Z,99622.64
2019-03-03T12:33:15.743Z,99612.89
2019-03-03T12:34:59.128Z,99622.86
2019-03-03T12:36:46.255Z,99615.32
2019-03-03T12:38:32.884Z,99625.05
2019-03-03T12:40:19.659Z,99614.83
2019-03-03T12:42:17.262Z,99605.37
2019-03-03T12:44:05.679Z,99609.89
2019-03-03T12:45:50.394Z,99609.81
2019-03-03T12:47:43.193Z,99605.02
2019-03-03T12:49:28.883Z,99608.22
2019-03-03T12:51:28.243Z,99602.66
2019-03-03T12:53:22.264Z,99612.06
2019-03-03T12:55:16.059Z,99601.73
2019-03-03T12:56:56.624Z,99596.70
2019-03-03T12:58:37.935Z,99594.64
2019-03-03T13:00:35.378Z,99596.72
2019-03-03T13:02:32.055Z,99597.05
2019-03-03T13:04:24.163Z,99595.93
2019-03-03T13:06:08.482Z,99604.25
2019-03-03T13:07:58.505Z,99597.41
2019-03-03T13:09:59.717Z,99600.59
2019-03-03T13:11:52.236Z,99596.94
2019-03-03T13:13:49.151Z,99605.56
2019-03-03T13:15:43.518Z,99604.56
2019-03-03T13:17:50.049Z,99595.52
2019-03-03T13:19:46.145Z,99611.21
2019-03-03T13:21:29.682Z,99609.78
2019-03-03T13:23:16.822Z,99595.59
2019-03-03T13:25:08.704Z,99601.67
2019-03-03T13:27:02.031Z,99598.16
2019-03-03T13:28:45.560Z,99601.36
2019-03-03T13:30:35.281Z,99604.36
2019-03-03T13:32:18.682Z,99593.30
2019-03-03T13:34:18.429Z,99592.70
2019-03-03T13:36:08.066Z,99594.53
2019-03-03T13:37:59.131Z,99589.29
2019-03-03T13:39:53.127Z,99599.75
2019-03-03T13:42:02.638Z,99597.16
2019-03-03T13:43:37.948Z,99587.95
2019-03-03T13:45:13.747Z,99589.34
2019-03-03T13:46:49.069Z,99584.57
2019-03-03T13:48:23.950Z,99585.58
2019-03-03T13:49:58.765Z,99579.09
2019-03-03T13:51:34.100Z,99587.53
2019-03-03T13:53:09.054Z,99575.78
2019-03-03T13:54:43.930Z,99581.18
2019-03-03T13:56:19.103Z,99572.67
2019-03-03T13:57:54.136Z,99579.39
2019-03-03T13:59:29.399Z,99566.04
2019-03-03T14:01:04.273Z,99568.95
2019-03-03T14:02:39.428Z,99567.81
2019-03-03T14:04:14.532Z,99569.05
2019-03-03T14:05:49.475Z,99562.61
2019-03-03T14:07:24.670Z,99558.42
2019-03-03T14:08:59.454Z,99560.38
2019-03-03T14:10:34.427Z,99561.05
2019-03-03T14:12:09.490Z,99556.93
2019-03-03T14:13:44.677Z,99556.84
2019-03-03T14:15:20.783Z,99554.73
2019-03-03T14:16:55.670Z,99554.70
2019-03-03T14:18:30.477Z,99550.87
2019-03-03T14:20:06.861Z,99554.77
2019-03-03T14:21:41.735Z,99553.92
2019-03-03T14:23:16.613Z,99551.10
2019-03-03T14:24:51.514Z,99551.98
2019-03-03T14:26:26.671Z,99553.95
2019-03-03T14:28:01.538Z,99549.23
2019-03-03T14:29:36.711Z,99551.94
2019-03-03T14:31:11.607Z,99542.85
2019-03-03T14:32:46.763Z,99543.75
2019-03-03T14:34:21.643Z,99550.52
2019-03-03T14:35:56.774Z,99547.81
2019-03-03T14:37:32.164Z,99540.02
2019-03-03T14:39:08.295Z,99536.99
2019-03-03T14:40:43.096Z,99537.77
2019-03-03T14:42:18.407Z,99531.98
2019-03-03T14:43:53.582Z,99523.06
2019-03-03T14:45:28.650Z,99538.00
2019-03-03T14:47:03.565Z,99524.37
2019-03-03T14:48:38.392Z,99536.08
2019-03-03T14:50:15.583Z,99532.30
2019-03-03T14:51:50.742Z,99538.50
2019-03-03T14:53:26.162Z,99526.86
2019-03-03T14:55:05.775Z,99530.81
2019-03-03T14:56:42.673Z,99526.14
2019-03-03T14:58:17.454Z,99526.88
2019-03-03T14:59:52.510Z,99532.03
2019-03-03T15:01:27.652Z,99525.53
2019-03-03T15:03:05.325Z,99527.97
2019-03-03T15:04:40.688Z,99530.52
2019-03-03T15:06:24.191Z,99520.19
2019-03-03T15:07:52.433Z,99528.11
2019-03-03T15:09:27.566Z,99524.45
2019-03-03T15:11:02.702Z,99522.59
2019-03-03T15:12:37.495Z,99521.81
2019-03-03T15:14:12.368Z,99513.65
2019-03-03T15:15:47.511Z,99521.84
2019-03-03T15:17:22.316Z,99512.55
2019-03-03T15:18:57.628Z,99508.75
2019-03-03T15:20:32.782Z,99510.92
2019-03-03T15:22:08.450Z,99513.94
2019-03-03T15:23:43.250Z,99512.92
2019-03-03T15:25:18.628Z,99514.38
2019-03-03T15:26:53.499Z,99511.34
2019-03-03T15:28:28.557Z,99509.86
2019-03-03T15:30:03.718Z,99505.08
2019-03-03T15:31:38.662Z,99518.78
2019-03-03T15:33:13.450Z,99507.66
2019-03-03T15:34:48.588Z,99503.41
2019-03-03T15:36:23.763Z,99498.77
2019-03-03T15:37:58.973Z,99502.16
2019-03-03T15:39:34.104Z,99497.37
2019-03-03T15:41:09.164Z,99505.03
2019-03-03T15:42:45.325Z,99498.74
2019-03-03T15:44:20.143Z,99489.10
2019-03-03T15:45:55.317Z,99489.05
2019-03-03T15:47:30.349Z,99494.73
2019-03-03T15:49:05.476Z,99489.17
2019-03-03T15:50:40.611Z,99489.50
2019-03-03T15:52:15.908Z,99483.56
2019-03-03T15:53:50.703Z,99491.55
2019-03-03T15:55:25.794Z,99485.19
2019-03-03T15:57:00.594Z,99490.91
2019-03-03T15:58:35.805Z,99485.38
2019-03-03T16:00:18.362Z,99496.31
2019-03-03T16:01:53.175Z,99492.70
2019-03-03T16:03:28.041Z,99489.70
2019-03-03T16:05:03.069Z,99494.89
2019-03-03T16:06:38.377Z,99492.78
2019-03-03T16:08:14.656Z,99494.74
2019-03-03T16:09:52.285Z,99492.80
2019-03-03T16:11:26.452Z,99485.20
2019-03-03T16:13:01.224Z,99484.62
2019-03-03T16:14:36.295Z,99484.23
2019-03-03T16:16:11.719Z,99475.70
2019-03-03T16:17:46.920Z,99469.75
2019-03-03T16:19:21.801Z,99467.69
2019-03-03T16:20:56.689Z,99472.36
2019-03-03T16:22:31.778Z,99473.66
2019-03-03T16:24:08.549Z,99475.45
2019-03-03T16:25:43.719Z,99474.81
2019-03-03T16:27:18.516Z,99468.27
2019-03-03T16:28:53.564Z,99462.55
2019-03-03T16:30:28.463Z,99467.06
2019-03-03T16:32:03.746Z,99471.53
2019-03-03T16:33:38.788Z,99475.30
2019-03-03T16:35:14.379Z,99468.88
2019-03-03T16:36:49.167Z,99473.74
2019-03-03T16:38:24.058Z,99460.84
2019-03-03T16:39:58.850Z,99466.20
2019-03-03T16:41:33.649Z,99466.98
2019-03-03T16:43:08.792Z,99467.39
2019-03-03T16:44:43.901Z,99469.42
2019-03-03T16:46:18.948Z,99461.00
2019-03-03T16:47:53.861Z,99452.99
2019-03-03T16:49:28.659Z,99457.52
2019-03-03T16:51:03.573Z,99462.65
2019-03-03T16:52:38.847Z,99471.82
2019-03-03T16:54:14.129Z,99465.74
2019-03-03T16:55:49.434Z,99463.48
2019-03-03T16:57:24.600Z,99466.73
2019-03-03T16:58:59.727Z,99461.70
2019-03-03T17:00:34.526Z,99458.03
2019-03-03T17:02:09.651Z,99460.09
2019-03-03T17:03:45.063Z,99458.63
2019-03-03T17:05:21.227Z,99460.98
2019-03-03T17:06:56.025Z,99466.58
2019-03-03T17:08:30.849Z,99472.20
2019-03-03T17:10:06.470Z,99469.63
2019-03-03T17:11:41.263Z,99472.79
2019-03-03T17:13:16.313Z,99467.39
2019-03-03T17:14:51.339Z,99464.15
2019-03-03T17:16:26.894Z,99459.25
2019-03-03T17:18:01.936Z,99462.36
2019-03-03T17:19:37.508Z,99457.81
2019-03-03T17:21:12.435Z,99460.40
2019-03-03T17:22:47.257Z,99451.00
2019-03-03T17:24:22.075Z,99458.30
2019-03-03T17:25:56.940Z,99457.69
2019-03-03T17:27:32.340Z,99462.83
2019-03-03T17:29:07.461Z,99460.75
2019-03-03T17:30:42.566Z,99461.58
2019-03-03T17:32:17.672Z,99462.03
2019-03-03T17:33:52.769Z,99459.69
2019-03-03T17:35:27.907Z,99452.50
2019-03-03T17:37:02.807Z,99456.05
2019-03-03T17:38:37.612Z,99455.31
2019-03-03T17:40:15.689Z,99457.33
2019-03-03T17:41:50.837Z,99453.58
2019-03-03T17:43:25.662Z,99446.98
2019-03-03T17:45:00.529Z,99441.75
2019-03-03T17:46:35.341Z,99445.64
2019-03-03T17:48:10.489Z,99444.87
2019-03-03T17:49:46.602Z,99443.98
2019-03-03T17:51:21.906Z,99428.80
2019-03-03T17:52:56.519Z,99444.69
2019-03-03T17:54:30.958Z,99424.13
2019-03-03T17:56:05.495Z,99434.95
2019-03-03T17:57:40.060Z,99429.50
2019-03-03T17:59:14.425Z,99422.73
2019-03-03T18:00:49.539Z,99422.34
2019-03-03T18:02:24.164Z,99426.61
2019-03-03T18:03:59.118Z,99416.50
2019-03-03T18:05:34.149Z,99423.20
2019-03-03T18:07:08.719Z,99423.00
2019-03-03T18:08:43.724Z,99415.96
2019-03-03T18:10:18.933Z,99404.97
2019-03-03T18:11:53.717Z,99396.09
2019-03-03T18:13:28.529Z,99411.56
2019-03-03T18:15:03.499Z,99409.69
2019-03-03T18:16:38.554Z,99398.49
2019-03-03T18:18:13.838Z,99401.72
2019-03-03T18:19:48.755Z,99383.86
2019-03-03T18:21:23.564Z,99388.13
2019-03-03T18:22:58.435Z,99384.46
2019-03-03T18:24:33.495Z,99387.67
2019-03-03T18:26:08.644Z,99387.19
2019-03-03T18:27:44.705Z,99390.94
2019-03-03T18:29:19.758Z,99379.95
2019-03-03T18:30:54.554Z,99390.37
2019-03-03T18:32:30.017Z,99395.11
2019-03-03T18:34:04.885Z,99395.17
2019-03-03T18:35:39.794Z,99398.87
2019-03-03T18:37:14.860Z,99411.15
2019-03-03T18:38:49.956Z,99412.08
2019-03-03T18:40:25.153Z,99410.41
2019-03-03T18:42:00.211Z,99418.28
2019-03-03T18:43:35.553Z,99409.72
2019-03-03T18:45:12.387Z,99419.08
2019-03-03T18:46:47.208Z,99415.35
2019-03-03T18:48:21.982Z,99410.59
2019-03-03T18:49:57.037Z,99410.80
2019-03-03T18:51:32.362Z,99410.05
2019-03-03T18:53:07.526Z,99421.94
2019-03-03T18:54:42.582Z,99420.02
2019-03-03T18:56:17.658Z,99416.31
2019-03-03T18:57:52.949Z,99421.94
2019-03-03T18:59:27.762Z,99403.16
2019-03-03T19:01:03.665Z,99403.44
2019-03-03T19:02:38.508Z,99400.16
2019-03-03T19:04:13.486Z,99411.73
2019-03-03T19:05:55.459Z,99406.19
2019-03-03T19:07:25.299Z,99410.04
2019-03-03T19:09:00.646Z,99403.69
2019-03-03T19:10:35.638Z,99404.44
2019-03-03T19:12:10.671Z,99399.55
2019-03-03T19:13:45.480Z,99401.09
2019-03-03T19:15:20.729Z,99401.07
2019-03-03T19:16:55.515Z,99404.64
2019-03-03T19:18:30.309Z,99408.52
2019-03-03T19:20:09.304Z,99405.13
2019-03-03T19:21:44.105Z,99407.08
2019-03-03T19:23:18.891Z,99408.60
2019-03-03T19:24:53.687Z,99409.55
2019-03-03T19:26:28.863Z,99408.66
2019-03-03T19:28:03.985Z,99406.41
2019-03-03T19:29:38.820Z,99400.97
2019-03-03T19:31:13.848Z,99406.07
2019-03-03T19:32:53.011Z,99405.03
2019-03-03T19:34:27.866Z,99399.55
2019-03-03T19:36:02.816Z,99404.31
2019-03-03T19:37:37.609Z,99392.55
2019-03-03T19:39:13.397Z,99395.38
2019-03-03T19:40:48.537Z,99393.61
2019-03-03T19:42:23.328Z,99392.68
2019-03-03T19:43:58.464Z,99380.29
2019-03-03T19:45:34.426Z,99394.33